KFWA

Fort Wayne International Airport

Airport
ICAO code
KFWA
IATA Code
FWA
Summary
ICAO Region
NAM
ICAO Territory
Location

Waynedale, Indiana

Serving
Fort Wayne
Elevation
814 ft
Coordinates
40° 58' 42" N , 85° 11' 42" W
KCC
Airport WX
Cumulonimbus
Metar
KFWA 270854Z 22011KT 9SM -RA BKN100 OVC120 17/15 A2952 RMK AO2 RAB24 SLP993 P0002 60002 T01720150 58001

International Airport located 8 nm southwest of the central business district of Fort Wayne, in Allen County, Indiana, USA.

Airport map

Aerial View

SKYbrary Partners:

Safety knowledge contributed by: